Time;durP1;ratioP1;P1;durP2;ratioP2;P2;SDS_P1;SDS_P2;PMS_P1;PMS_P2;Temp;Humidity;BMP_temperature;BMP_pressure;BME280_temperature;BME280_humidity;BME280_pressure;Samples;Min_cycle;Max_cycle;Signal;HPM_P1;HPM_P2
2022/04/17 00:01:30;;;;;;;;;;;9.00;57.80;;;;;;5093330;28;19912;-68
2022/04/17 00:03:56;;;;;;;;;;;8.90;58.20;;;;;;5092868;28;19919;-67
2022/04/17 00:06:21;;;;;;;;;;;8.90;58.10;;;;;;5091485;28;19908;-67
2022/04/17 00:08:46;;;;;;;;;;;8.80;58.30;;;;;;5092872;28;20016;-67
2022/04/17 00:11:12;;;;;;;;;;;8.70;58.30;;;;;;5092642;28;19909;-67
2022/04/17 00:13:37;;;;;;;;;;;8.80;58.50;;;;;;5092717;28;19978;-67
2022/04/17 00:16:03;;;;;;;;;;;8.70;58.70;;;;;;5092472;28;19947;-67
2022/04/17 00:18:28;;;;;;;;;;;8.70;59.10;;;;;;5092548;28;19931;-66
2022/04/17 00:20:54;;;;;;;;;;;8.60;59.70;;;;;;5092590;28;19915;-68
2022/04/17 00:23:19;;;;;;;;;;;8.60;59.30;;;;;;5092632;28;19915;-67
2022/04/17 00:25:45;;;;;;;;;;;8.60;59.20;;;;;;5092255;28;19908;-68
2022/04/17 00:28:10;;;;;;;;;;;8.60;59.20;;;;;;5091303;28;19912;-68
2022/04/17 00:30:36;;;;;;;;;;;8.60;59.20;;;;;;5092218;28;20276;-67
2022/04/17 00:33:01;;;;;;;;;;;8.50;59.30;;;;;;5092469;28;20014;-68
2022/04/17 00:35:27;;;;;;;;;;;8.70;59.40;;;;;;5092549;28;19912;-66
2022/04/17 00:37:52;;;;;;;;;;;8.70;59.50;;;;;;5092314;28;19908;-67
2022/04/17 00:40:18;;;;;;;;;;;8.80;59.20;;;;;;5090295;28;19908;-67
2022/04/17 00:42:44;;;;;;;;;;;8.90;58.80;;;;;;5092281;28;20007;-67
2022/04/17 00:45:09;;;;;;;;;;;9.10;58.80;;;;;;5092215;28;20372;-68
2022/04/17 00:47:35;;;;;;;;;;;9.20;58.60;;;;;;5092073;28;19918;-68
2022/04/17 00:50:02;;;;;;;;;;;9.30;58.40;;;;;;5091445;28;20065;-68
2022/04/17 00:52:28;;;;;;;;;;;9.40;58.20;;;;;;5092492;28;19974;-68
2022/04/17 00:54:54;;;;;;;;;;;9.40;58.20;;;;;;5092502;28;19908;-68
2022/04/17 00:57:20;;;;;;;;;;;9.40;58.40;;;;;;5092617;28;19916;-68
2022/04/17 00:59:46;;;;;;;;;;;9.30;58.60;;;;;;5074217;28;20510;-67
2022/04/17 01:02:12;;;;;;;;;;;9.30;58.70;;;;;;5092041;28;19908;-69
2022/04/17 01:04:39;;;;;;;;;;;9.40;59.00;;;;;;5091995;28;19959;-67
2022/04/17 01:07:05;;;;;;;;;;;9.50;59.00;;;;;;5091865;28;20444;-68
2022/04/17 01:09:30;;;;;;;;;;;9.50;58.90;;;;;;5092154;28;19943;-67
2022/04/17 01:11:57;;;;;;;;;;;9.60;59.00;;;;;;5092047;28;19912;-68
2022/04/17 01:14:22;;;;;;;;;;;9.60;59.00;;;;;;5091979;28;20027;-67
2022/04/17 01:16:48;;;;;;;;;;;9.60;59.00;;;;;;5091832;28;19908;-68
2022/04/17 01:19:13;;;;;;;;;;;9.70;59.10;;;;;;5091734;28;19909;-68
2022/04/17 01:21:40;;;;;;;;;;;9.70;59.20;;;;;;5092140;28;19908;-67
2022/04/17 01:26:57;;;;;;;;;;;9.80;59.30;;;;;;5092317;28;19969;-69
2022/04/17 01:29:24;;;;;;;;;;;9.80;59.30;;;;;;5091719;28;20373;-67
2022/04/17 01:31:49;;;;;;;;;;;9.80;59.20;;;;;;5092045;28;19914;-68
2022/04/17 01:34:16;;;;;;;;;;;9.80;59.20;;;;;;5091850;28;19912;-67
2022/04/17 01:36:45;;;;;;;;;;;9.80;59.30;;;;;;5089974;28;19957;-67
2022/04/17 01:39:10;;;;;;;;;;;9.70;59.40;;;;;;5091468;28;19999;-68
2022/04/17 01:41:36;;;;;;;;;;;9.80;59.50;;;;;;5091622;28;20340;-69
2022/04/17 01:44:02;;;;;;;;;;;9.80;59.50;;;;;;5090016;28;20314;-68
2022/04/17 01:46:27;;;;;;;;;;;9.80;59.50;;;;;;5091532;28;19965;-67
2022/04/17 01:48:54;;;;;;;;;;;9.70;59.60;;;;;;5091584;28;20296;-68
2022/04/17 01:51:19;;;;;;;;;;;9.70;59.70;;;;;;5094384;28;19908;-66
2022/04/17 01:53:45;;;;;;;;;;;9.60;59.80;;;;;;5095560;28;19908;-68
2022/04/17 01:56:10;;;;;;;;;;;9.70;60.00;;;;;;5095897;28;20003;-67
2022/04/17 01:58:36;;;;;;;;;;;9.70;60.00;;;;;;5095430;28;19921;-67
2022/04/17 02:01:01;;;;;;;;;;;9.70;60.00;;;;;;5095099;28;20296;-68
2022/04/17 02:03:26;;;;;;;;;;;9.70;60.10;;;;;;5095202;28;20289;-68
2022/04/17 02:05:52;;;;;;;;;;;9.60;60.10;;;;;;5095088;28;19916;-67
2022/04/17 02:08:17;;;;;;;;;;;9.50;60.50;;;;;;5095385;28;20007;-68
2022/04/17 02:10:43;;;;;;;;;;;9.50;60.60;;;;;;5094803;28;20393;-67
2022/04/17 02:13:08;;;;;;;;;;;9.40;60.80;;;;;;5095140;28;19962;-67
2022/04/17 02:15:33;;;;;;;;;;;9.30;61.10;;;;;;5094620;28;19948;-67
2022/04/17 02:17:59;;;;;;;;;;;9.30;61.30;;;;;;5094887;28;19923;-68
2022/04/17 02:20:25;;;;;;;;;;;9.30;61.40;;;;;;5094498;28;19912;-67
2022/04/17 02:22:50;;;;;;;;;;;9.30;61.50;;;;;;5095184;28;19915;-67
2022/04/17 02:25:16;;;;;;;;;;;9.30;61.70;;;;;;5094715;28;19950;-67
2022/04/17 02:27:41;;;;;;;;;;;9.10;62.00;;;;;;5094508;28;19916;-67
2022/04/17 02:30:08;;;;;;;;;;;9.00;62.40;;;;;;5094260;28;19912;-68
2022/04/17 02:32:34;;;;;;;;;;;8.90;63.10;;;;;;5094959;28;19908;-68
2022/04/17 02:34:59;;;;;;;;;;;8.80;63.30;;;;;;5094499;28;20261;-68
2022/04/17 02:37:25;;;;;;;;;;;8.90;63.60;;;;;;5094204;28;19927;-67
2022/04/17 02:39:50;;;;;;;;;;;8.80;63.60;;;;;;5094403;28;19912;-68
2022/04/17 02:42:16;;;;;;;;;;;8.80;63.70;;;;;;5094476;28;19912;-67
2022/04/17 02:44:41;;;;;;;;;;;8.70;64.40;;;;;;5093232;28;20353;-66
2022/04/17 02:49:51;;;;;;;;;;;8.70;65.00;;;;;;5094403;28;19920;-68
2022/04/17 02:52:16;;;;;;;;;;;8.70;65.00;;;;;;5094391;28;19908;-68
2022/04/17 02:54:42;;;;;;;;;;;8.70;65.10;;;;;;5094179;28;19908;-67
2022/04/17 02:57:07;;;;;;;;;;;8.60;65.40;;;;;;5093927;28;19923;-69
2022/04/17 02:59:33;;;;;;;;;;;8.70;65.70;;;;;;5093990;28;19915;-67
2022/04/17 03:07:26;;;;;;;;;;;8.50;66.80;;;;;;5093838;28;20363;-67
2022/04/17 03:09:52;;;;;;;;;;;8.40;66.80;;;;;;5093415;28;19946;-68
2022/04/17 03:12:17;;;;;;;;;;;8.40;67.30;;;;;;5093799;28;20002;-67
2022/04/17 03:14:46;;;;;;;;;;;8.40;67.60;;;;;;5093705;28;19915;-67
2022/04/17 03:17:11;;;;;;;;;;;8.40;68.20;;;;;;5093679;28;20277;-68
2022/04/17 03:19:37;;;;;;;;;;;8.50;68.30;;;;;;5093213;28;19916;-67
2022/04/17 03:22:03;;;;;;;;;;;8.50;68.30;;;;;;5093577;28;19908;-67
2022/04/17 03:24:28;;;;;;;;;;;8.40;68.20;;;;;;5092662;28;19909;-68
2022/04/17 03:26:53;;;;;;;;;;;8.40;69.20;;;;;;5112741;22;20375;-69
2022/04/17 03:29:19;;;;;;;;;;;8.30;69.50;;;;;;5064248;28;19920;-71
2022/04/17 03:31:44;;;;;;;;;;;8.20;70.40;;;;;;5053390;28;19954;-69
2022/04/17 03:34:10;;;;;;;;;;;8.10;71.30;;;;;;5053324;28;19908;-69
2022/04/17 03:36:39;;;;;;;;;;;8.10;70.90;;;;;;5052718;28;19908;-70
2022/04/17 03:39:05;;;;;;;;;;;8.10;70.40;;;;;;5033493;28;19909;-69
2022/04/17 03:41:31;;;;;;;;;;;8.10;71.20;;;;;;5033350;28;19959;-70
2022/04/17 03:43:57;;;;;;;;;;;8.10;72.20;;;;;;5033260;28;20370;-70
2022/04/17 03:46:22;;;;;;;;;;;8.00;72.20;;;;;;5033082;28;19913;-70
2022/04/17 03:48:48;;;;;;;;;;;8.00;72.80;;;;;;5033118;28;19913;-69
2022/04/17 03:51:13;;;;;;;;;;;8.00;73.40;;;;;;5032768;28;20398;-70
2022/04/17 03:53:39;;;;;;;;;;;7.90;73.70;;;;;;5033476;28;19910;-70
2022/04/17 03:56:05;;;;;;;;;;;7.80;74.40;;;;;;5032969;28;20003;-70
2022/04/17 03:58:30;;;;;;;;;;;7.80;75.00;;;;;;5033078;28;19963;-70
2022/04/17 04:00:55;;;;;;;;;;;7.80;75.00;;;;;;5032759;28;20021;-70
2022/04/17 04:03:21;;;;;;;;;;;7.60;75.50;;;;;;5033003;28;19916;-70
2022/04/17 04:05:47;;;;;;;;;;;7.60;76.50;;;;;;5032921;28;20274;-70
2022/04/17 04:08:12;;;;;;;;;;;7.60;76.00;;;;;;5032655;28;19913;-70
2022/04/17 04:10:38;;;;;;;;;;;7.70;75.90;;;;;;5032561;28;20365;-70
2022/04/17 04:13:04;;;;;;;;;;;7.70;76.60;;;;;;5032550;28;19909;-70
2022/04/17 04:15:29;;;;;;;;;;;7.50;77.50;;;;;;5031842;28;19941;-70
2022/04/17 04:17:55;;;;;;;;;;;7.40;78.50;;;;;;5032536;28;19955;-70
2022/04/17 04:20:20;;;;;;;;;;;7.40;78.30;;;;;;5031948;28;20112;-70
2022/04/17 04:22:46;;;;;;;;;;;7.40;78.90;;;;;;5032405;28;19909;-70
2022/04/17 04:25:11;;;;;;;;;;;7.30;78.80;;;;;;5032333;28;20014;-70
2022/04/17 04:30:21;;;;;;;;;;;7.50;79.50;;;;;;5032393;28;19929;-69
2022/04/17 04:32:52;;;;;;;;;;;7.50;79.90;;;;;;5032209;28;20334;-70
2022/04/17 04:35:18;;;;;;;;;;;7.60;79.70;;;;;;5032234;28;19909;-70
2022/04/17 04:37:44;;;;;;;;;;;7.50;79.90;;;;;;5031661;28;19916;-69
2022/04/17 04:40:10;;;;;;;;;;;7.40;81.00;;;;;;5031740;28;20351;-69
2022/04/17 04:42:35;;;;;;;;;;;7.20;82.50;;;;;;5032016;28;19909;-70
2022/04/17 04:47:45;;;;;;;;;;;7.10;83.70;;;;;;5032142;28;19919;-70
2022/04/17 04:50:10;;;;;;;;;;;7.20;83.90;;;;;;5031520;28;19909;-70
2022/04/17 04:52:36;;;;;;;;;;;7.20;83.40;;;;;;5031897;28;20021;-69
2022/04/17 04:55:02;;;;;;;;;;;7.20;84.40;;;;;;5031806;28;20343;-70
2022/04/17 04:57:27;;;;;;;;;;;7.20;84.30;;;;;;5031846;28;19909;-70
2022/04/17 04:59:53;;;;;;;;;;;7.20;84.30;;;;;;5031641;28;19909;-70
2022/04/17 05:02:18;;;;;;;;;;;7.20;83.10;;;;;;5031945;28;20362;-69
2022/04/17 05:04:44;;;;;;;;;;;7.20;83.90;;;;;;5031721;28;20386;-70
2022/04/17 05:07:09;;;;;;;;;;;7.20;84.00;;;;;;5031792;28;19920;-70
2022/04/17 05:09:34;;;;;;;;;;;7.30;83.30;;;;;;5031770;28;19916;-69
2022/04/17 05:12:00;;;;;;;;;;;7.30;83.90;;;;;;5031594;28;20355;-70
2022/04/17 05:14:29;;;;;;;;;;;7.20;84.10;;;;;;5031908;28;19963;-70
2022/04/17 05:16:54;;;;;;;;;;;7.10;85.30;;;;;;5030329;28;20391;-70
2022/04/17 05:19:20;;;;;;;;;;;7.20;85.90;;;;;;5031343;28;20033;-70
2022/04/17 05:21:51;;;;;;;;;;;7.30;85.70;;;;;;5031718;28;19909;-70
2022/04/17 05:24:17;;;;;;;;;;;7.50;84.50;;;;;;5032026;28;19909;-70
2022/04/17 05:26:43;;;;;;;;;;;7.50;84.20;;;;;;5033346;28;20016;-70
2022/04/17 05:29:08;;;;;;;;;;;7.50;84.20;;;;;;5045606;28;19913;-70
2022/04/17 05:31:34;;;;;;;;;;;7.50;84.40;;;;;;5044963;28;19916;-70
2022/04/17 05:33:59;;;;;;;;;;;7.50;84.70;;;;;;5033775;28;20282;-69
2022/04/17 05:36:25;;;;;;;;;;;7.60;83.90;;;;;;5049098;28;19909;-70
2022/04/17 05:38:53;;;;;;;;;;;7.70;82.70;;;;;;5055259;28;19909;-70
2022/04/17 05:41:20;;;;;;;;;;;7.70;83.00;;;;;;5055181;28;19909;-70
2022/04/17 05:43:46;;;;;;;;;;;7.90;82.60;;;;;;5050052;28;20392;-70
2022/04/17 05:46:11;;;;;;;;;;;7.90;82.10;;;;;;5051732;28;20000;-69
2022/04/17 05:48:37;;;;;;;;;;;8.00;82.40;;;;;;5054468;28;19913;-70
2022/04/17 05:51:02;;;;;;;;;;;8.00;82.30;;;;;;5053991;28;19913;-70
2022/04/17 05:53:28;;;;;;;;;;;8.00;82.10;;;;;;5054703;28;19909;-69
2022/04/17 05:55:54;;;;;;;;;;;8.10;81.00;;;;;;5036620;28;19920;-69
2022/04/17 05:58:19;;;;;;;;;;;8.20;80.60;;;;;;5054310;28;20416;-70
2022/04/17 06:00:47;;;;;;;;;;;8.30;80.40;;;;;;5053969;28;19999;-70
2022/04/17 06:03:15;;;;;;;;;;;8.40;80.70;;;;;;5038058;28;19929;-69
2022/04/17 06:05:41;;;;;;;;;;;8.40;80.70;;;;;;5054642;28;20011;-70
2022/04/17 06:08:07;;;;;;;;;;;8.50;80.40;;;;;;5054430;28;20011;-69
2022/04/17 06:10:32;;;;;;;;;;;8.50;80.70;;;;;;5053937;28;19909;-69
2022/04/17 06:12:58;;;;;;;;;;;8.60;80.40;;;;;;5054228;28;19915;-70
2022/04/17 06:15:23;;;;;;;;;;;8.70;80.00;;;;;;5054309;28;19913;-70
2022/04/17 06:17:48;;;;;;;;;;;8.80;79.50;;;;;;5054219;28;19932;-69
2022/04/17 06:20:14;;;;;;;;;;;8.80;78.70;;;;;;5053836;28;19917;-70
2022/04/17 06:22:40;;;;;;;;;;;8.90;78.40;;;;;;5054568;28;19991;-70
2022/04/17 06:25:07;;;;;;;;;;;8.90;77.80;;;;;;5054233;28;19908;-70
2022/04/17 06:27:39;;;;;;;;;;;9.10;77.40;;;;;;5053878;28;19923;-70
2022/04/17 06:30:05;;;;;;;;;;;9.10;77.10;;;;;;5053838;28;19909;-70
2022/04/17 06:32:32;;;;;;;;;;;9.20;77.00;;;;;;5053760;28;19913;-69
2022/04/17 06:34:58;;;;;;;;;;;9.30;76.70;;;;;;5053865;28;19940;-70
2022/04/17 06:37:24;;;;;;;;;;;9.50;76.20;;;;;;5053554;28;19913;-70
2022/04/17 06:39:50;;;;;;;;;;;9.50;75.20;;;;;;5052955;28;19913;-70
2022/04/17 06:42:15;;;;;;;;;;;9.60;74.50;;;;;;5053782;28;20234;-70
2022/04/17 06:44:40;;;;;;;;;;;9.60;73.70;;;;;;5054508;28;20385;-71
2022/04/17 06:47:06;;;;;;;;;;;9.70;73.30;;;;;;5053732;28;19939;-71
2022/04/17 06:49:31;;;;;;;;;;;9.80;73.40;;;;;;5053767;28;20297;-71
2022/04/17 06:51:57;;;;;;;;;;;10.00;72.20;;;;;;5054050;28;20451;-71
2022/04/17 06:54:22;;;;;;;;;;;10.10;71.20;;;;;;5053590;28;20312;-71
2022/04/17 06:56:48;;;;;;;;;;;10.20;70.40;;;;;;5053535;28;19913;-71
2022/04/17 06:59:13;;;;;;;;;;;10.30;70.00;;;;;;5053430;28;20029;-71
2022/04/17 07:01:38;;;;;;;;;;;10.50;69.00;;;;;;5054069;28;19909;-71
2022/04/17 07:04:04;;;;;;;;;;;10.50;68.70;;;;;;5053429;28;19909;-70
2022/04/17 07:06:29;;;;;;;;;;;10.50;68.40;;;;;;5053875;28;19951;-71
2022/04/17 07:08:55;;;;;;;;;;;10.70;68.20;;;;;;5054516;28;19917;-71
2022/04/17 07:11:23;;;;;;;;;;;10.80;68.00;;;;;;5035293;28;19974;-70
2022/04/17 07:13:48;;;;;;;;;;;10.90;67.50;;;;;;5053778;28;19905;-70
2022/04/17 07:16:14;;;;;;;;;;;11.00;67.70;;;;;;5053304;28;19909;-71
2022/04/17 07:18:39;;;;;;;;;;;10.90;66.40;;;;;;5053628;28;19909;-71
2022/04/17 07:21:05;;;;;;;;;;;10.80;66.80;;;;;;5053386;28;19916;-71
2022/04/17 07:23:30;;;;;;;;;;;10.70;66.80;;;;;;5053556;28;20377;-71
2022/04/17 07:25:57;;;;;;;;;;;10.80;67.20;;;;;;5053127;28;19915;-70
2022/04/17 07:28:23;;;;;;;;;;;10.70;66.20;;;;;;5035289;28;20517;-70
2022/04/17 07:30:49;;;;;;;;;;;10.80;66.60;;;;;;5053114;28;19959;-69
2022/04/17 07:33:16;;;;;;;;;;;10.90;66.60;;;;;;5053211;28;19913;-71
2022/04/17 07:35:42;;;;;;;;;;;11.00;66.20;;;;;;5052945;28;20278;-71
2022/04/17 07:38:08;;;;;;;;;;;11.10;66.20;;;;;;5053679;28;20232;-70
2022/04/17 07:40:34;;;;;;;;;;;11.00;65.80;;;;;;5053799;28;19909;-69
2022/04/17 07:43:00;;;;;;;;;;;11.20;65.90;;;;;;5054455;28;19909;-70
2022/04/17 07:45:26;;;;;;;;;;;11.40;72.20;;;;;;5053696;28;19909;-70
2022/04/17 07:47:52;;;;;;;;;;;11.60;75.70;;;;;;5053598;28;20266;-70
2022/04/17 07:50:19;;;;;;;;;;;11.80;76.20;;;;;;5053417;28;19916;-70
2022/04/17 07:52:45;;;;;;;;;;;12.00;74.30;;;;;;5053309;28;19962;-70
2022/04/17 07:55:12;;;;;;;;;;;12.10;68.10;;;;;;5053113;28;19987;-71
2022/04/17 07:58:01;;;;;;;;;;;12.20;69.00;;;;;;5052978;28;20002;-71
2022/04/17 08:00:28;;;;;;;;;;;12.10;65.00;;;;;;5053297;28;20281;-70
2022/04/17 08:02:55;;;;;;;;;;;12.00;64.10;;;;;;5054264;28;20015;-70
2022/04/17 08:05:24;;;;;;;;;;;12.10;64.20;;;;;;5052623;28;19996;-71
2022/04/17 08:07:51;;;;;;;;;;;12.20;64.30;;;;;;5052492;28;20010;-72
2022/04/17 08:10:16;;;;;;;;;;;12.40;63.10;;;;;;5052315;28;19908;-69
2022/04/17 08:12:42;;;;;;;;;;;12.40;62.00;;;;;;5052784;28;20007;-69
2022/04/17 08:15:08;;;;;;;;;;;12.30;62.40;;;;;;5052376;28;19948;-69
2022/04/17 08:17:34;;;;;;;;;;;12.40;62.90;;;;;;5052811;28;19986;-69
2022/04/17 08:19:59;;;;;;;;;;;12.40;61.90;;;;;;5052431;28;19913;-70
2022/04/17 08:22:25;;;;;;;;;;;12.60;61.60;;;;;;5052609;28;20391;-69
2022/04/17 08:24:50;;;;;;;;;;;12.60;61.40;;;;;;5052620;28;20388;-69
2022/04/17 08:27:16;;;;;;;;;;;12.60;61.50;;;;;;5059624;28;20011;-69
2022/04/17 08:29:41;;;;;;;;;;;12.80;61.20;;;;;;5054835;28;19944;-70
2022/04/17 08:32:07;;;;;;;;;;;13.00;61.30;;;;;;5052656;28;19955;-70
2022/04/17 08:34:32;;;;;;;;;;;13.10;59.90;;;;;;5052532;28;19916;-69
2022/04/17 08:36:59;;;;;;;;;;;13.10;59.50;;;;;;5052487;28;19909;-70
2022/04/17 08:39:25;;;;;;;;;;;13.00;59.60;;;;;;5051789;28;20292;-70
2022/04/17 08:41:51;;;;;;;;;;;13.00;59.40;;;;;;5052581;28;19909;-70
2022/04/17 08:44:17;;;;;;;;;;;13.20;59.90;;;;;;5052287;28;19909;-70
2022/04/17 08:46:42;;;;;;;;;;;13.40;59.30;;;;;;5052148;28;19908;-70
2022/04/17 08:49:11;;;;;;;;;;;13.50;59.10;;;;;;5052024;28;19913;-70
2022/04/17 08:51:38;;;;;;;;;;;13.60;58.80;;;;;;5052494;28;20373;-70
2022/04/17 08:54:04;;;;;;;;;;;13.80;58.80;;;;;;5052064;28;19932;-70
2022/04/17 08:56:30;;;;;;;;;;;13.90;58.40;;;;;;5052300;28;19912;-70
2022/04/17 08:58:56;;;;;;;;;;;13.80;58.10;;;;;;5052024;28;19909;-72
2022/04/17 09:01:21;;;;;;;;;;;13.70;58.30;;;;;;5050938;28;19920;-70
2022/04/17 09:03:47;;;;;;;;;;;13.80;58.80;;;;;;5052095;28;19908;-71
2022/04/17 09:06:19;;;;;;;;;;;14.00;58.60;;;;;;5051975;28;19912;-70
2022/04/17 09:08:57;;;;;;;;;;;14.30;58.30;;;;;;5051984;28;19913;-71
2022/04/17 09:11:26;;;;;;;;;;;14.30;57.40;;;;;;5052208;28;20004;-71
2022/04/17 09:13:53;;;;;;;;;;;14.40;57.90;;;;;;5051912;28;19924;-71
2022/04/17 09:16:24;;;;;;;;;;;14.60;58.10;;;;;;5051933;28;20289;-70
2022/04/17 09:18:49;;;;;;;;;;;14.80;57.80;;;;;;5033900;28;19909;-71
2022/04/17 09:21:26;;;;;;;;;;;14.90;57.20;;;;;;5051534;28;20401;-70
2022/04/17 09:23:52;;;;;;;;;;;14.90;56.40;;;;;;5034151;28;20350;-71
2022/04/17 09:26:17;;;;;;;;;;;15.00;56.80;;;;;;5051762;28;19954;-71
2022/04/17 09:28:44;;;;;;;;;;;15.20;56.70;;;;;;5091307;22;19962;-67
2022/04/17 09:31:10;;;;;;;;;;;15.20;56.60;;;;;;5083274;28;19908;-68
2022/04/17 09:33:36;;;;;;;;;;;15.10;54.70;;;;;;5092734;28;19908;-69
2022/04/17 09:36:02;;;;;;;;;;;15.10;54.70;;;;;;5092387;28;19953;-68
2022/04/17 09:38:30;;;;;;;;;;;15.30;55.60;;;;;;5092978;28;19916;-69
2022/04/17 09:41:05;;;;;;;;;;;15.30;54.40;;;;;;5092353;28;19908;-67
2022/04/17 09:43:35;;;;;;;;;;;15.50;54.40;;;;;;5092982;28;19912;-68
2022/04/17 09:46:00;;;;;;;;;;;15.70;53.10;;;;;;5092187;28;19908;-68
2022/04/17 09:48:33;;;;;;;;;;;15.80;52.90;;;;;;5091769;28;20396;-67
2022/04/17 09:50:59;;;;;;;;;;;15.60;51.00;;;;;;5091924;28;19958;-68
2022/04/17 09:53:35;;;;;;;;;;;15.50;51.00;;;;;;5092067;28;19908;-70
2022/04/17 09:56:08;;;;;;;;;;;15.60;51.10;;;;;;5092364;28;19908;-69
2022/04/17 09:58:36;;;;;;;;;;;15.60;50.80;;;;;;5091985;28;19908;-69
2022/04/17 10:01:03;;;;;;;;;;;15.90;50.40;;;;;;5091521;28;20398;-69
2022/04/17 10:03:29;;;;;;;;;;;16.00;49.50;;;;;;5091841;28;19908;-68
2022/04/17 10:05:54;;;;;;;;;;;16.20;49.50;;;;;;5092205;28;20296;-68
2022/04/17 10:08:20;;;;;;;;;;;16.20;49.70;;;;;;5091795;28;19916;-68
2022/04/17 10:10:45;;;;;;;;;;;16.30;49.90;;;;;;5091475;28;20253;-69
2022/04/17 10:13:11;;;;;;;;;;;16.50;49.70;;;;;;5092009;28;20365;-69
2022/04/17 10:15:38;;;;;;;;;;;16.50;49.20;;;;;;5095236;28;20381;-67
2022/04/17 10:18:04;;;;;;;;;;;16.50;48.80;;;;;;5095491;28;19908;-68
2022/04/17 10:20:30;;;;;;;;;;;16.50;48.00;;;;;;5094833;28;19915;-69
2022/04/17 10:22:57;;;;;;;;;;;16.40;48.30;;;;;;5095365;28;20444;-68
2022/04/17 10:25:23;;;;;;;;;;;16.50;49.20;;;;;;5095221;28;19930;-68
2022/04/17 10:27:51;;;;;;;;;;;16.70;49.70;;;;;;5093786;28;20007;-68
2022/04/17 10:30:18;;;;;;;;;;;16.80;49.90;;;;;;5095115;28;19908;-68
2022/04/17 10:32:46;;;;;;;;;;;16.90;49.60;;;;;;5095554;28;20319;-68
2022/04/17 10:35:18;;;;;;;;;;;16.90;48.70;;;;;;5094687;28;20393;-68
2022/04/17 10:37:43;;;;;;;;;;;16.90;48.70;;;;;;5094721;28;19908;-70
2022/04/17 10:40:12;;;;;;;;;;;16.80;47.70;;;;;;5094480;28;19912;-67
2022/04/17 10:42:56;;;;;;;;;;;16.90;47.50;;;;;;5094786;28;19912;-69
2022/04/17 10:45:22;;;;;;;;;;;17.00;47.50;;;;;;5094783;28;19912;-69
2022/04/17 10:48:02;;;;;;;;;;;17.10;47.20;;;;;;5093365;28;19912;-68
2022/04/17 10:50:29;;;;;;;;;;;17.00;46.70;;;;;;5094456;28;19916;-70
2022/04/17 10:52:54;;;;;;;;;;;17.10;47.40;;;;;;5094597;28;19952;-67
2022/04/17 10:55:20;;;;;;;;;;;17.20;47.20;;;;;;5094297;28;19954;-67
2022/04/17 10:57:47;;;;;;;;;;;17.00;45.80;;;;;;5094451;28;20006;-68
2022/04/17 11:00:28;;;;;;;;;;;17.00;46.70;;;;;;5094637;28;19912;-67
2022/04/17 11:02:57;;;;;;;;;;;16.90;46.60;;;;;;5094172;28;20313;-68
2022/04/17 11:06:13;;;;;;;;;;;16.90;46.60;;;;;;5094271;28;19914;-68
2022/04/17 11:08:44;;;;;;;;;;;17.00;46.70;;;;;;5091788;28;20335;-67
2022/04/17 11:11:10;;;;;;;;;;;17.00;46.30;;;;;;5093884;28;20426;-68
2022/04/17 11:13:35;;;;;;;;;;;17.20;46.30;;;;;;5094276;28;19912;-69
2022/04/17 11:16:06;;;;;;;;;;;17.20;45.90;;;;;;5094222;28;19908;-67
2022/04/17 11:18:31;;;;;;;;;;;17.20;46.30;;;;;;5093790;28;19908;-68
2022/04/17 11:20:58;;;;;;;;;;;17.10;44.70;;;;;;5093734;28;19934;-68
2022/04/17 11:23:49;;;;;;;;;;;16.90;45.50;;;;;;5094065;28;20376;-69
2022/04/17 11:26:15;;;;;;;;;;;17.00;46.20;;;;;;5090938;28;19912;-68
2022/04/17 11:28:40;;;;;;;;;;;17.10;46.20;;;;;;5093564;28;19923;-68
2022/04/17 11:31:06;;;;;;;;;;;17.10;46.10;;;;;;5093658;28;19915;-68
2022/04/17 11:33:32;;;;;;;;;;;17.10;45.70;;;;;;5093968;28;19908;-69
2022/04/17 11:35:57;;;;;;;;;;;17.20;45.90;;;;;;5093363;28;20023;-69
2022/04/17 11:38:23;;;;;;;;;;;17.30;45.80;;;;;;5093856;28;19908;-69
2022/04/17 11:40:49;;;;;;;;;;;17.30;45.70;;;;;;5093695;28;19908;-69
2022/04/17 11:43:16;;;;;;;;;;;17.40;45.60;;;;;;5093816;28;20368;-68
2022/04/17 11:45:45;;;;;;;;;;;17.40;45.60;;;;;;5094019;28;19930;-69
2022/04/17 11:48:11;;;;;;;;;;;17.50;45.10;;;;;;5093120;28;20007;-69
2022/04/17 11:50:38;;;;;;;;;;;17.50;45.40;;;;;;5093700;28;19915;-69
2022/04/17 11:53:10;;;;;;;;;;;17.40;45.00;;;;;;5094080;28;20269;-69
2022/04/17 11:55:37;;;;;;;;;;;17.40;45.30;;;;;;5093745;28;19961;-69
2022/04/17 11:58:03;;;;;;;;;;;17.40;45.00;;;;;;5093730;28;19909;-69
2022/04/17 12:00:29;;;;;;;;;;;17.40;44.60;;;;;;5093344;28;19916;-67
2022/04/17 12:02:56;;;;;;;;;;;17.30;44.90;;;;;;5092150;28;20326;-68
2022/04/17 12:05:21;;;;;;;;;;;17.40;44.40;;;;;;5093607;28;19999;-68
2022/04/17 12:07:55;;;;;;;;;;;17.40;44.20;;;;;;5095210;28;19966;-68
2022/04/17 12:10:22;;;;;;;;;;;17.40;44.00;;;;;;5096775;28;19908;-68
2022/04/17 12:12:47;;;;;;;;;;;17.30;43.80;;;;;;5096864;28;19908;-70
2022/04/17 12:15:14;;;;;;;;;;;17.30;43.10;;;;;;5094989;28;19915;-68
2022/04/17 12:17:40;;;;;;;;;;;17.30;43.90;;;;;;5093555;28;20002;-67
2022/04/17 12:20:13;;;;;;;;;;;17.30;44.10;;;;;;5092740;28;19962;-67
2022/04/17 12:22:39;;;;;;;;;;;17.20;43.90;;;;;;5093517;28;19955;-68
2022/04/17 12:25:14;;;;;;;;;;;17.10;44.00;;;;;;5093280;28;19915;-68
2022/04/17 12:27:39;;;;;;;;;;;17.10;44.10;;;;;;5093314;28;20280;-69
2022/04/17 12:30:05;;;;;;;;;;;17.10;43.80;;;;;;5092690;28;19912;-69
2022/04/17 12:32:30;;;;;;;;;;;17.20;44.40;;;;;;5092562;28;19943;-69
2022/04/17 12:35:00;;;;;;;;;;;17.30;44.30;;;;;;5092750;28;19908;-69
2022/04/17 12:37:28;;;;;;;;;;;17.30;43.90;;;;;;5092110;28;19908;-69
2022/04/17 12:40:13;;;;;;;;;;;17.30;43.40;;;;;;5092791;28;19919;-69
2022/04/17 12:42:39;;;;;;;;;;;17.20;43.30;;;;;;5092640;28;20003;-69
2022/04/17 12:45:05;;;;;;;;;;;17.30;44.10;;;;;;5092706;28;19912;-69
2022/04/17 12:47:31;;;;;;;;;;;17.40;44.00;;;;;;5092387;28;19912;-69
2022/04/17 12:50:06;;;;;;;;;;;17.30;43.70;;;;;;5092133;28;20285;-68
2022/04/17 12:52:32;;;;;;;;;;;17.30;43.80;;;;;;5092702;28;19908;-69
2022/04/17 12:55:05;;;;;;;;;;;17.10;43.60;;;;;;5092615;28;19935;-69
2022/04/17 12:57:30;;;;;;;;;;;17.00;44.00;;;;;;5092482;28;19930;-68
2022/04/17 12:59:56;;;;;;;;;;;17.20;44.10;;;;;;5092201;28;19908;-68
2022/04/17 13:02:22;;;;;;;;;;;17.40;43.80;;;;;;5092295;28;19954;-68
2022/04/17 13:04:51;;;;;;;;;;;17.40;43.70;;;;;;5092329;28;19920;-68
2022/04/17 13:07:16;;;;;;;;;;;17.50;43.90;;;;;;5092834;28;19908;-69
2022/04/17 13:09:48;;;;;;;;;;;17.60;44.00;;;;;;5092493;28;19912;-69
2022/04/17 13:12:28;;;;;;;;;;;17.60;43.50;;;;;;5092790;28;20026;-68
2022/04/17 13:14:57;;;;;;;;;;;17.70;43.90;;;;;;5092842;28;19908;-67
2022/04/17 13:17:22;;;;;;;;;;;17.70;44.20;;;;;;5092358;28;19995;-69
2022/04/17 13:19:48;;;;;;;;;;;17.80;44.00;;;;;;5092487;28;19955;-68
2022/04/17 13:22:13;;;;;;;;;;;17.90;44.10;;;;;;5091903;28;19916;-67
2022/04/17 13:24:41;;;;;;;;;;;18.10;44.10;;;;;;5092443;28;20440;-68
2022/04/17 13:27:07;;;;;;;;;;;18.20;43.70;;;;;;5092332;28;19909;-68
2022/04/17 13:29:32;;;;;;;;;;;18.20;42.60;;;;;;5091683;28;19961;-68
2022/04/17 13:31:58;;;;;;;;;;;18.20;42.10;;;;;;5092177;28;19908;-67
2022/04/17 13:34:23;;;;;;;;;;;18.30;42.60;;;;;;5091920;28;20273;-67
2022/04/17 13:38:10;;;;;;;;;;;18.50;43.10;;;;;;5091804;28;19919;-68
2022/04/17 13:39:34;;;;;;;;;;;18.70;43.10;;;;;;5091715;28;20364;-68
2022/04/17 13:41:59;;;;;;;;;;;18.90;43.00;;;;;;5092055;28;19915;-68
2022/04/17 13:44:25;;;;;;;;;;;18.90;41.80;;;;;;5090755;28;19975;-67
2022/04/17 13:46:50;;;;;;;;;;;19.00;41.80;;;;;;5092076;28;19909;-67
2022/04/17 13:49:16;;;;;;;;;;;19.20;42.10;;;;;;5095296;28;19999;-69
2022/04/17 13:51:41;;;;;;;;;;;19.30;42.10;;;;;;5096384;28;19991;-70
2022/04/17 13:54:09;;;;;;;;;;;19.40;42.00;;;;;;5096187;28;19916;-67
2022/04/17 13:56:35;;;;;;;;;;;19.60;41.40;;;;;;5095809;28;19911;-68
2022/04/17 13:59:05;;;;;;;;;;;19.60;40.40;;;;;;5095305;28;19912;-67
2022/04/17 14:01:31;;;;;;;;;;;19.80;40.20;;;;;;5096632;28;19908;-68
2022/04/17 14:03:58;;;;;;;;;;;20.00;39.80;;;;;;5098701;28;19916;-70
2022/04/17 14:06:24;;;;;;;;;;;20.20;39.80;;;;;;5095791;28;20061;-69
2022/04/17 14:08:50;;;;;;;;;;;20.30;39.10;;;;;;5095396;28;20007;-68
2022/04/17 14:11:16;;;;;;;;;;;20.30;38.80;;;;;;5095579;28;19908;-70
2022/04/17 14:13:42;;;;;;;;;;;20.50;39.40;;;;;;5095161;28;19916;-69
2022/04/17 14:16:08;;;;;;;;;;;20.60;39.40;;;;;;5095274;28;19955;-68
2022/04/17 14:18:34;;;;;;;;;;;20.70;39.80;;;;;;5094914;28;19923;-68
2022/04/17 14:20:59;;;;;;;;;;;20.80;39.60;;;;;;5094652;28;19908;-67
2022/04/17 14:23:25;;;;;;;;;;;20.90;40.00;;;;;;5095447;28;20292;-69
2022/04/17 14:25:50;;;;;;;;;;;21.00;39.70;;;;;;5095205;28;20384;-68
2022/04/17 14:28:17;;;;;;;;;;;20.80;38.60;;;;;;5094743;28;19955;-67
2022/04/17 14:30:42;;;;;;;;;;;20.90;38.80;;;;;;5094733;28;20002;-69
2022/04/17 14:33:08;;;;;;;;;;;20.90;38.90;;;;;;5095000;28;19950;-68
2022/04/17 14:35:33;;;;;;;;;;;21.20;39.10;;;;;;5095054;28;19908;-70
2022/04/17 14:37:59;;;;;;;;;;;21.50;39.00;;;;;;5093563;28;20032;-69